sensor_id;sensor_type;location;lat;lon;timestamp;temperature;humidity
1137;DHT22;557;48.466;7.950;2022-10-16T00:02:17;15.90;99.90
1137;DHT22;557;48.466;7.950;2022-10-16T00:05:03;15.90;99.90
1137;DHT22;557;48.466;7.950;2022-10-16T00:07:49;16.00;99.90
1137;DHT22;557;48.466;7.950;2022-10-16T00:10:35;16.10;99.90
1137;DHT22;557;48.466;7.950;2022-10-16T00:13:22;16.10;99.90
1137;DHT22;557;48.466;7.950;2022-10-16T00:16:09;16.20;99.90
1137;DHT22;557;48.466;7.950;2022-10-16T00:18:55;16.20;99.90
1137;DHT22;557;48.466;7.950;2022-10-16T00:21:41;16.10;99.90
1137;DHT22;557;48.466;7.950;2022-10-16T00:24:27;16.10;99.90
1137;DHT22;557;48.466;7.950;2022-10-16T00:27:13;16.10;99.90
1137;DHT22;557;48.466;7.950;2022-10-16T00:30:02;16.10;99.90
1137;DHT22;557;48.466;7.950;2022-10-16T00:32:48;16.10;99.90
1137;DHT22;557;48.466;7.950;2022-10-16T00:35:33;16.10;99.90
1137;DHT22;557;48.466;7.950;2022-10-16T00:38:19;16.10;99.90
1137;DHT22;557;48.466;7.950;2022-10-16T00:41:04;16.10;99.90
1137;DHT22;557;48.466;7.950;2022-10-16T00:43:52;16.10;99.90
1137;DHT22;557;48.466;7.950;2022-10-16T00:46:41;16.00;99.90
1137;DHT22;557;48.466;7.950;2022-10-16T00:49:27;16.00;99.90
1137;DHT22;557;48.466;7.950;2022-10-16T00:52:13;16.00;99.90
1137;DHT22;557;48.466;7.950;2022-10-16T00:55:00;15.90;99.90
1137;DHT22;557;48.466;7.950;2022-10-16T00:57:47;15.90;99.90
1137;DHT22;557;48.466;7.950;2022-10-16T01:00:33;15.90;99.90
1137;DHT22;557;48.466;7.950;2022-10-16T01:03:26;16.00;99.90
1137;DHT22;557;48.466;7.950;2022-10-16T01:06:21;16.00;99.90
1137;DHT22;557;48.466;7.950;2022-10-16T01:09:14;16.00;99.90
1137;DHT22;557;48.466;7.950;2022-10-16T01:12:06;16.00;99.90
1137;DHT22;557;48.466;7.950;2022-10-16T01:14:59;16.00;99.90
1137;DHT22;557;48.466;7.950;2022-10-16T01:17:51;16.00;99.90
1137;DHT22;557;48.466;7.950;2022-10-16T01:20:44;15.90;99.90
1137;DHT22;557;48.466;7.950;2022-10-16T01:23:42;16.00;99.90
1137;DHT22;557;48.466;7.950;2022-10-16T01:26:37;16.00;99.90
1137;DHT22;557;48.466;7.950;2022-10-16T01:29:32;16.00;99.90
1137;DHT22;557;48.466;7.950;2022-10-16T01:32:27;16.00;99.90
1137;DHT22;557;48.466;7.950;2022-10-16T01:35:18;16.00;99.90
1137;DHT22;557;48.466;7.950;2022-10-16T01:38:09;16.00;99.90
1137;DHT22;557;48.466;7.950;2022-10-16T01:41:01;15.90;99.90
1137;DHT22;557;48.466;7.950;2022-10-16T01:43:50;15.80;99.90
1137;DHT22;557;48.466;7.950;2022-10-16T01:46:42;15.80;99.90
1137;DHT22;557;48.466;7.950;2022-10-16T01:49:32;15.80;99.90
1137;DHT22;557;48.466;7.950;2022-10-16T01:52:22;15.80;99.90
1137;DHT22;557;48.466;7.950;2022-10-16T01:55:10;15.80;99.90
1137;DHT22;557;48.466;7.950;2022-10-16T01:57:59;15.80;99.90
1137;DHT22;557;48.466;7.950;2022-10-16T02:00:47;15.80;99.90
1137;DHT22;557;48.466;7.950;2022-10-16T02:03:35;15.80;99.90
1137;DHT22;557;48.466;7.950;2022-10-16T02:06:23;15.90;99.90
1137;DHT22;557;48.466;7.950;2022-10-16T02:09:09;15.90;99.90
1137;DHT22;557;48.466;7.950;2022-10-16T02:11:57;15.90;99.90
1137;DHT22;557;48.466;7.950;2022-10-16T02:14:46;15.90;99.90
1137;DHT22;557;48.466;7.950;2022-10-16T02:17:32;15.90;99.90
1137;DHT22;557;48.466;7.950;2022-10-16T02:20:22;15.90;99.90
1137;DHT22;557;48.466;7.950;2022-10-16T02:23:13;15.90;99.90
1137;DHT22;557;48.466;7.950;2022-10-16T02:26:03;15.90;99.90
1137;DHT22;557;48.466;7.950;2022-10-16T02:28:54;15.90;99.90
1137;DHT22;557;48.466;7.950;2022-10-16T02:31:44;16.00;99.90
1137;DHT22;557;48.466;7.950;2022-10-16T02:34:32;15.90;99.90
1137;DHT22;557;48.466;7.950;2022-10-16T02:37:20;15.80;99.90
1137;DHT22;557;48.466;7.950;2022-10-16T02:40:07;15.80;99.90
1137;DHT22;557;48.466;7.950;2022-10-16T02:42:54;15.70;99.90
1137;DHT22;557;48.466;7.950;2022-10-16T02:45:40;15.70;99.90
1137;DHT22;557;48.466;7.950;2022-10-16T02:48:25;15.70;99.90
1137;DHT22;557;48.466;7.950;2022-10-16T02:51:11;15.60;99.90
1137;DHT22;557;48.466;7.950;2022-10-16T02:53:58;15.70;99.90
1137;DHT22;557;48.466;7.950;2022-10-16T02:56:43;15.70;99.90
1137;DHT22;557;48.466;7.950;2022-10-16T02:59:29;15.70;99.90
1137;DHT22;557;48.466;7.950;2022-10-16T03:02:14;15.80;99.90
1137;DHT22;557;48.466;7.950;2022-10-16T03:05:00;15.80;99.90
1137;DHT22;557;48.466;7.950;2022-10-16T03:07:46;15.80;99.90
1137;DHT22;557;48.466;7.950;2022-10-16T03:10:33;15.80;99.90
1137;DHT22;557;48.466;7.950;2022-10-16T03:13:19;15.80;99.90
1137;DHT22;557;48.466;7.950;2022-10-16T03:16:05;15.70;99.90
1137;DHT22;557;48.466;7.950;2022-10-16T03:18:51;15.70;99.90
1137;DHT22;557;48.466;7.950;2022-10-16T03:21:36;15.70;99.90
1137;DHT22;557;48.466;7.950;2022-10-16T03:24:22;15.60;99.90
1137;DHT22;557;48.466;7.950;2022-10-16T03:27:09;15.60;99.90
1137;DHT22;557;48.466;7.950;2022-10-16T03:29:55;15.70;99.90
1137;DHT22;557;48.466;7.950;2022-10-16T03:32:40;15.70;99.90
1137;DHT22;557;48.466;7.950;2022-10-16T03:35:26;15.70;99.90
1137;DHT22;557;48.466;7.950;2022-10-16T03:38:11;15.70;99.90
1137;DHT22;557;48.466;7.950;2022-10-16T03:40:56;15.60;99.90
1137;DHT22;557;48.466;7.950;2022-10-16T03:43:44;15.60;99.90
1137;DHT22;557;48.466;7.950;2022-10-16T03:46:29;15.60;99.90
1137;DHT22;557;48.466;7.950;2022-10-16T03:49:15;15.60;99.90
1137;DHT22;557;48.466;7.950;2022-10-16T03:52:01;15.60;99.90
1137;DHT22;557;48.466;7.950;2022-10-16T03:54:46;15.60;99.90
1137;DHT22;557;48.466;7.950;2022-10-16T03:57:32;15.60;99.90
1137;DHT22;557;48.466;7.950;2022-10-16T04:00:19;15.60;99.90
1137;DHT22;557;48.466;7.950;2022-10-16T04:03:04;15.60;99.90
1137;DHT22;557;48.466;7.950;2022-10-16T04:05:50;15.50;99.90
1137;DHT22;557;48.466;7.950;2022-10-16T04:08:36;15.50;99.90
1137;DHT22;557;48.466;7.950;2022-10-16T04:11:23;15.40;99.90
1137;DHT22;557;48.466;7.950;2022-10-16T04:14:08;15.40;99.90
1137;DHT22;557;48.466;7.950;2022-10-16T04:16:55;15.30;99.90
1137;DHT22;557;48.466;7.950;2022-10-16T04:19:41;15.20;99.90
1137;DHT22;557;48.466;7.950;2022-10-16T04:22:26;15.30;99.90
1137;DHT22;557;48.466;7.950;2022-10-16T04:25:12;15.20;99.90
1137;DHT22;557;48.466;7.950;2022-10-16T04:27:57;15.10;99.90
1137;DHT22;557;48.466;7.950;2022-10-16T04:30:43;15.10;99.90
1137;DHT22;557;48.466;7.950;2022-10-16T04:33:29;15.10;99.90
1137;DHT22;557;48.466;7.950;2022-10-16T04:36:15;15.10;99.90
1137;DHT22;557;48.466;7.950;2022-10-16T04:39:01;15.10;99.90
1137;DHT22;557;48.466;7.950;2022-10-16T04:41:46;15.10;99.90
1137;DHT22;557;48.466;7.950;2022-10-16T04:44:32;15.10;99.90
1137;DHT22;557;48.466;7.950;2022-10-16T04:47:17;15.10;99.90
1137;DHT22;557;48.466;7.950;2022-10-16T04:50:05;15.00;99.90
1137;DHT22;557;48.466;7.950;2022-10-16T04:52:51;15.10;99.90
1137;DHT22;557;48.466;7.950;2022-10-16T04:55:37;15.20;99.90
1137;DHT22;557;48.466;7.950;2022-10-16T04:58:23;15.20;99.90
1137;DHT22;557;48.466;7.950;2022-10-16T05:01:08;15.20;99.90
1137;DHT22;557;48.466;7.950;2022-10-16T05:03:54;15.30;99.90
1137;DHT22;557;48.466;7.950;2022-10-16T05:06:41;15.30;99.90
1137;DHT22;557;48.466;7.950;2022-10-16T05:09:27;15.30;99.90
1137;DHT22;557;48.466;7.950;2022-10-16T05:12:12;15.30;99.90
1137;DHT22;557;48.466;7.950;2022-10-16T05:14:58;15.30;99.90
1137;DHT22;557;48.466;7.950;2022-10-16T05:17:44;15.20;99.90
1137;DHT22;557;48.466;7.950;2022-10-16T05:20:29;15.20;99.90
1137;DHT22;557;48.466;7.950;2022-10-16T05:23:17;15.20;99.90
1137;DHT22;557;48.466;7.950;2022-10-16T05:26:02;15.20;99.90
1137;DHT22;557;48.466;7.950;2022-10-16T05:28:48;15.30;99.90
1137;DHT22;557;48.466;7.950;2022-10-16T05:31:34;15.30;99.90
1137;DHT22;557;48.466;7.950;2022-10-16T05:34:20;15.40;99.90
1137;DHT22;557;48.466;7.950;2022-10-16T05:37:06;15.40;99.90
1137;DHT22;557;48.466;7.950;2022-10-16T05:39:53;15.40;99.90
1137;DHT22;557;48.466;7.950;2022-10-16T05:42:39;15.40;99.90
1137;DHT22;557;48.466;7.950;2022-10-16T05:45:25;15.40;99.90
1137;DHT22;557;48.466;7.950;2022-10-16T05:48:11;15.40;99.90
1137;DHT22;557;48.466;7.950;2022-10-16T05:50:57;15.40;99.90
1137;DHT22;557;48.466;7.950;2022-10-16T05:53:43;15.40;99.90
1137;DHT22;557;48.466;7.950;2022-10-16T05:56:30;15.40;99.90
1137;DHT22;557;48.466;7.950;2022-10-16T05:59:16;15.50;99.90
1137;DHT22;557;48.466;7.950;2022-10-16T06:02:01;15.50;99.90
1137;DHT22;557;48.466;7.950;2022-10-16T06:04:47;15.40;99.90
1137;DHT22;557;48.466;7.950;2022-10-16T06:07:34;15.50;99.90
1137;DHT22;557;48.466;7.950;2022-10-16T06:10:20;15.50;99.90
1137;DHT22;557;48.466;7.950;2022-10-16T06:13:08;15.50;99.90
1137;DHT22;557;48.466;7.950;2022-10-16T06:15:56;15.50;99.90
1137;DHT22;557;48.466;7.950;2022-10-16T06:18:42;15.50;99.90
1137;DHT22;557;48.466;7.950;2022-10-16T06:21:28;15.60;99.90
1137;DHT22;557;48.466;7.950;2022-10-16T06:24:14;15.50;99.90
1137;DHT22;557;48.466;7.950;2022-10-16T06:26:59;15.60;99.90
1137;DHT22;557;48.466;7.950;2022-10-16T06:29:46;15.50;99.90
1137;DHT22;557;48.466;7.950;2022-10-16T06:32:32;15.50;99.90
1137;DHT22;557;48.466;7.950;2022-10-16T06:35:18;15.40;99.90
1137;DHT22;557;48.466;7.950;2022-10-16T06:38:04;15.40;99.90
1137;DHT22;557;48.466;7.950;2022-10-16T06:40:49;15.40;99.90
1137;DHT22;557;48.466;7.950;2022-10-16T06:43:35;15.30;99.90
1137;DHT22;557;48.466;7.950;2022-10-16T06:46:23;15.30;99.90
1137;DHT22;557;48.466;7.950;2022-10-16T06:49:09;15.30;99.90
1137;DHT22;557;48.466;7.950;2022-10-16T06:51:55;15.30;99.90
1137;DHT22;557;48.466;7.950;2022-10-16T06:54:40;15.30;99.90
1137;DHT22;557;48.466;7.950;2022-10-16T06:57:26;15.40;99.90
1137;DHT22;557;48.466;7.950;2022-10-16T07:00:12;15.40;99.90
1137;DHT22;557;48.466;7.950;2022-10-16T07:02:59;15.50;99.90
1137;DHT22;557;48.466;7.950;2022-10-16T07:05:45;15.50;99.90
1137;DHT22;557;48.466;7.950;2022-10-16T07:08:31;15.70;99.90
1137;DHT22;557;48.466;7.950;2022-10-16T07:11:19;15.70;99.90
1137;DHT22;557;48.466;7.950;2022-10-16T07:14:04;15.80;99.90
1137;DHT22;557;48.466;7.950;2022-10-16T07:16:50;15.90;99.90
1137;DHT22;557;48.466;7.950;2022-10-16T07:19:37;16.00;99.90
1137;DHT22;557;48.466;7.950;2022-10-16T07:22:22;16.00;99.90
1137;DHT22;557;48.466;7.950;2022-10-16T07:25:08;16.10;99.90
1137;DHT22;557;48.466;7.950;2022-10-16T07:27:55;16.10;99.90
1137;DHT22;557;48.466;7.950;2022-10-16T07:30:41;16.20;99.90
1137;DHT22;557;48.466;7.950;2022-10-16T07:33:26;16.30;99.90
1137;DHT22;557;48.466;7.950;2022-10-16T07:36:14;16.40;99.90
1137;DHT22;557;48.466;7.950;2022-10-16T07:39:00;16.40;99.90
1137;DHT22;557;48.466;7.950;2022-10-16T07:41:46;16.40;99.90
1137;DHT22;557;48.466;7.950;2022-10-16T07:44:31;16.30;99.90
1137;DHT22;557;48.466;7.950;2022-10-16T07:47:17;16.20;99.90
1137;DHT22;557;48.466;7.950;2022-10-16T07:50:03;16.20;99.90
1137;DHT22;557;48.466;7.950;2022-10-16T07:52:50;16.20;99.90
1137;DHT22;557;48.466;7.950;2022-10-16T07:55:36;16.20;99.90
1137;DHT22;557;48.466;7.950;2022-10-16T07:58:21;16.20;99.90
1137;DHT22;557;48.466;7.950;2022-10-16T08:01:08;16.20;99.90
1137;DHT22;557;48.466;7.950;2022-10-16T08:03:54;16.20;99.90
1137;DHT22;557;48.466;7.950;2022-10-16T08:06:40;16.30;99.90
1137;DHT22;557;48.466;7.950;2022-10-16T08:09:28;16.40;99.90
1137;DHT22;557;48.466;7.950;2022-10-16T08:12:14;16.60;99.90
1137;DHT22;557;48.466;7.950;2022-10-16T08:14:59;16.80;99.90
1137;DHT22;557;48.466;7.950;2022-10-16T08:17:53;16.90;99.90
1137;DHT22;557;48.466;7.950;2022-10-16T08:20:39;17.00;99.90
1137;DHT22;557;48.466;7.950;2022-10-16T08:23:26;17.00;99.90
1137;DHT22;557;48.466;7.950;2022-10-16T08:26:13;17.10;99.90
1137;DHT22;557;48.466;7.950;2022-10-16T08:28:59;17.10;98.00
1137;DHT22;557;48.466;7.950;2022-10-16T08:31:45;17.20;93.60
1137;DHT22;557;48.466;7.950;2022-10-16T08:34:30;17.30;66.70
1137;DHT22;557;48.466;7.950;2022-10-16T08:37:16;17.30;71.60
1137;DHT22;557;48.466;7.950;2022-10-16T08:40:02;17.40;56.60
1137;DHT22;557;48.466;7.950;2022-10-16T08:43:07;17.40;49.50
1137;DHT22;557;48.466;7.950;2022-10-16T08:46:07;17.60;36.90
1137;DHT22;557;48.466;7.950;2022-10-16T08:48:58;17.90;1.00
1137;DHT22;557;48.466;7.950;2022-10-16T08:51:44;18.20;1.00
1137;DHT22;557;48.466;7.950;2022-10-16T08:54:37;18.30;1.00
1137;DHT22;557;48.466;7.950;2022-10-16T08:57:25;18.50;1.00
1137;DHT22;557;48.466;7.950;2022-10-16T09:00:14;18.50;1.00
1137;DHT22;557;48.466;7.950;2022-10-16T09:03:06;18.70;1.00
1137;DHT22;557;48.466;7.950;2022-10-16T09:06:08;18.90;1.00
1137;DHT22;557;48.466;7.950;2022-10-16T09:09:09;19.20;1.00
1137;DHT22;557;48.466;7.950;2022-10-16T09:12:03;19.40;1.00
1137;DHT22;557;48.466;7.950;2022-10-16T09:14:59;19.40;1.00
1137;DHT22;557;48.466;7.950;2022-10-16T09:17:53;19.60;1.00
1137;DHT22;557;48.466;7.950;2022-10-16T09:20:45;19.80;99.90
1137;DHT22;557;48.466;7.950;2022-10-16T09:23:35;20.30;99.90
1137;DHT22;557;48.466;7.950;2022-10-16T09:26:21;20.50;1.00
1137;DHT22;557;48.466;7.950;2022-10-16T09:29:10;20.50;99.90
1137;DHT22;557;48.466;7.950;2022-10-16T09:32:12;20.50;1.00
1137;DHT22;557;48.466;7.950;2022-10-16T09:35:01;20.30;1.00
1137;DHT22;557;48.466;7.950;2022-10-16T09:37:49;20.10;6.60
1137;DHT22;557;48.466;7.950;2022-10-16T09:40:37;20.00;56.90
1137;DHT22;557;48.466;7.950;2022-10-16T09:43:25;20.10;99.90
1137;DHT22;557;48.466;7.950;2022-10-16T09:46:24;20.10;99.90
1137;DHT22;557;48.466;7.950;2022-10-16T09:49:21;20.10;99.90
1137;DHT22;557;48.466;7.950;2022-10-16T09:52:12;20.10;99.90
1137;DHT22;557;48.466;7.950;2022-10-16T09:54:59;20.00;1.00
1137;DHT22;557;48.466;7.950;2022-10-16T09:57:49;20.00;1.00
1137;DHT22;557;48.466;7.950;2022-10-16T10:00:35;19.90;99.90
1137;DHT22;557;48.466;7.950;2022-10-16T10:03:34;19.90;1.00
1137;DHT22;557;48.466;7.950;2022-10-16T10:06:25;19.90;1.00
1137;DHT22;557;48.466;7.950;2022-10-16T10:09:20;19.90;1.00
1137;DHT22;557;48.466;7.950;2022-10-16T10:12:17;19.80;1.00
1137;DHT22;557;48.466;7.950;2022-10-16T10:15:05;19.90;1.00
1137;DHT22;557;48.466;7.950;2022-10-16T10:17:53;20.00;99.90
1137;DHT22;557;48.466;7.950;2022-10-16T10:20:39;20.20;1.00
1137;DHT22;557;48.466;7.950;2022-10-16T10:23:26;20.30;1.00
1137;DHT22;557;48.466;7.950;2022-10-16T10:26:17;20.50;1.00
1137;DHT22;557;48.466;7.950;2022-10-16T10:29:07;20.70;1.00
1137;DHT22;557;48.466;7.950;2022-10-16T10:32:06;20.80;1.00
1137;DHT22;557;48.466;7.950;2022-10-16T10:35:04;20.90;1.00
1137;DHT22;557;48.466;7.950;2022-10-16T10:38:03;20.90;1.00
1137;DHT22;557;48.466;7.950;2022-10-16T10:41:02;21.00;1.00
1137;DHT22;557;48.466;7.950;2022-10-16T10:44:01;20.90;1.00
1137;DHT22;557;48.466;7.950;2022-10-16T10:46:51;21.00;99.90
1137;DHT22;557;48.466;7.950;2022-10-16T10:49:45;21.00;1.00
1137;DHT22;557;48.466;7.950;2022-10-16T10:52:50;21.20;1.00
1137;DHT22;557;48.466;7.950;2022-10-16T10:55:42;21.40;99.90
1137;DHT22;557;48.466;7.950;2022-10-16T10:58:52;21.30;99.90
1137;DHT22;557;48.466;7.950;2022-10-16T11:01:50;21.20;99.90
1137;DHT22;557;48.466;7.950;2022-10-16T11:05:00;21.30;99.90
1137;DHT22;557;48.466;7.950;2022-10-16T11:07:51;21.20;99.90
1137;DHT22;557;48.466;7.950;2022-10-16T11:10:44;21.20;99.90
1137;DHT22;557;48.466;7.950;2022-10-16T11:13:34;21.20;99.90
1137;DHT22;557;48.466;7.950;2022-10-16T11:16:25;21.20;99.90
1137;DHT22;557;48.466;7.950;2022-10-16T11:19:20;21.30;99.90
1137;DHT22;557;48.466;7.950;2022-10-16T11:22:16;21.50;99.90
1137;DHT22;557;48.466;7.950;2022-10-16T11:25:13;21.70;83.10
1137;DHT22;557;48.466;7.950;2022-10-16T11:28:06;21.70;95.90
1137;DHT22;557;48.466;7.950;2022-10-16T11:30:57;21.80;1.00
1137;DHT22;557;48.466;7.950;2022-10-16T11:33:47;21.90;1.00
1137;DHT22;557;48.466;7.950;2022-10-16T11:36:40;22.00;1.00
1137;DHT22;557;48.466;7.950;2022-10-16T11:39:28;21.90;99.90
1137;DHT22;557;48.466;7.950;2022-10-16T11:42:20;22.00;8.50
1137;DHT22;557;48.466;7.950;2022-10-16T11:45:15;22.10;99.90
1137;DHT22;557;48.466;7.950;2022-10-16T11:48:15;22.20;1.00
1137;DHT22;557;48.466;7.950;2022-10-16T11:51:11;22.30;99.90
1137;DHT22;557;48.466;7.950;2022-10-16T11:54:04;22.40;1.00
1137;DHT22;557;48.466;7.950;2022-10-16T11:56:54;22.50;99.90
1137;DHT22;557;48.466;7.950;2022-10-16T11:59:45;22.50;1.00
1137;DHT22;557;48.466;7.950;2022-10-16T12:02:38;22.70;1.00
1137;DHT22;557;48.466;7.950;2022-10-16T12:05:33;22.70;1.00
1137;DHT22;557;48.466;7.950;2022-10-16T12:08:20;23.00;99.90
1137;DHT22;557;48.466;7.950;2022-10-16T12:11:19;23.20;1.00
1137;DHT22;557;48.466;7.950;2022-10-16T12:14:20;23.30;1.00
1137;DHT22;557;48.466;7.950;2022-10-16T12:17:26;23.50;99.90
1137;DHT22;557;48.466;7.950;2022-10-16T12:24:22;23.30;5.40
1137;DHT22;557;48.466;7.950;2022-10-16T12:27:24;23.20;1.00
1137;DHT22;557;48.466;7.950;2022-10-16T12:30:21;23.10;2.60
1137;DHT22;557;48.466;7.950;2022-10-16T12:33:21;23.10;1.00
1137;DHT22;557;48.466;7.950;2022-10-16T12:36:13;23.10;91.20
1137;DHT22;557;48.466;7.950;2022-10-16T12:39:00;23.10;99.90
1137;DHT22;557;48.466;7.950;2022-10-16T12:41:45;23.10;99.90
1137;DHT22;557;48.466;7.950;2022-10-16T12:44:36;23.10;52.90
1137;DHT22;557;48.466;7.950;2022-10-16T12:47:23;23.10;99.90
1137;DHT22;557;48.466;7.950;2022-10-16T12:50:27;23.20;99.90
1137;DHT22;557;48.466;7.950;2022-10-16T12:53:20;23.20;1.00
1137;DHT22;557;48.466;7.950;2022-10-16T12:56:14;23.30;99.90
1137;DHT22;557;48.466;7.950;2022-10-16T12:59:14;23.40;99.90
1137;DHT22;557;48.466;7.950;2022-10-16T13:02:20;23.40;99.90
1137;DHT22;557;48.466;7.950;2022-10-16T13:05:24;23.50;99.90
1137;DHT22;557;48.466;7.950;2022-10-16T13:08:29;23.70;1.00
1137;DHT22;557;48.466;7.950;2022-10-16T13:11:24;24.00;84.00
1137;DHT22;557;48.466;7.950;2022-10-16T13:14:39;24.20;99.90
1137;DHT22;557;48.466;7.950;2022-10-16T13:17:37;24.40;90.80
1137;DHT22;557;48.466;7.950;2022-10-16T13:20:33;24.40;33.00
1137;DHT22;557;48.466;7.950;2022-10-16T13:23:24;24.50;99.90
1137;DHT22;557;48.466;7.950;2022-10-16T13:26:21;24.60;99.90
1137;DHT22;557;48.466;7.950;2022-10-16T13:29:09;24.80;1.00
1137;DHT22;557;48.466;7.950;2022-10-16T13:31:55;24.70;99.90
1137;DHT22;557;48.466;7.950;2022-10-16T13:34:46;25.10;99.90
1137;DHT22;557;48.466;7.950;2022-10-16T13:37:32;26.00;99.90
1137;DHT22;557;48.466;7.950;2022-10-16T13:40:20;27.00;99.90
1137;DHT22;557;48.466;7.950;2022-10-16T13:43:08;27.70;99.90
1137;DHT22;557;48.466;7.950;2022-10-16T13:45:55;28.00;99.90
1137;DHT22;557;48.466;7.950;2022-10-16T13:48:42;27.50;99.90
1137;DHT22;557;48.466;7.950;2022-10-16T13:51:30;27.50;99.90
1137;DHT22;557;48.466;7.950;2022-10-16T13:54:16;27.60;99.90
1137;DHT22;557;48.466;7.950;2022-10-16T13:57:05;27.20;99.90
1137;DHT22;557;48.466;7.950;2022-10-16T13:59:52;26.70;99.90
1137;DHT22;557;48.466;7.950;2022-10-16T14:02:39;26.10;99.90
1137;DHT22;557;48.466;7.950;2022-10-16T14:05:25;25.70;99.90
1137;DHT22;557;48.466;7.950;2022-10-16T14:08:12;25.60;99.90
1137;DHT22;557;48.466;7.950;2022-10-16T14:10:59;25.90;99.90
1137;DHT22;557;48.466;7.950;2022-10-16T14:13:46;26.70;99.90
1137;DHT22;557;48.466;7.950;2022-10-16T14:16:32;27.00;99.90
1137;DHT22;557;48.466;7.950;2022-10-16T14:19:21;27.10;99.90
1137;DHT22;557;48.466;7.950;2022-10-16T14:22:30;27.00;99.90
1137;DHT22;557;48.466;7.950;2022-10-16T14:25:24;27.10;99.90
1137;DHT22;557;48.466;7.950;2022-10-16T14:28:16;26.70;99.90
1137;DHT22;557;48.466;7.950;2022-10-16T14:34:24;26.70;99.90
1137;DHT22;557;48.466;7.950;2022-10-16T14:37:19;26.50;99.90
1137;DHT22;557;48.466;7.950;2022-10-16T14:40:14;26.70;99.90
1137;DHT22;557;48.466;7.950;2022-10-16T14:43:03;26.80;99.90
1137;DHT22;557;48.466;7.950;2022-10-16T14:45:52;26.70;99.90
1137;DHT22;557;48.466;7.950;2022-10-16T14:48:40;26.60;99.90
1137;DHT22;557;48.466;7.950;2022-10-16T14:51:27;26.40;99.90
1137;DHT22;557;48.466;7.950;2022-10-16T14:54:13;25.90;99.90
1137;DHT22;557;48.466;7.950;2022-10-16T14:57:01;25.40;99.90
1137;DHT22;557;48.466;7.950;2022-10-16T14:59:48;25.10;99.90
1137;DHT22;557;48.466;7.950;2022-10-16T15:02:35;24.90;99.90
1137;DHT22;557;48.466;7.950;2022-10-16T15:05:23;24.60;99.90
1137;DHT22;557;48.466;7.950;2022-10-16T15:08:09;24.40;99.90
1137;DHT22;557;48.466;7.950;2022-10-16T15:10:56;24.10;1.00
1137;DHT22;557;48.466;7.950;2022-10-16T15:13:42;23.90;1.00
1137;DHT22;557;48.466;7.950;2022-10-16T15:16:29;23.70;1.00
1137;DHT22;557;48.466;7.950;2022-10-16T15:19:15;23.60;1.00
1137;DHT22;557;48.466;7.950;2022-10-16T15:22:00;23.70;1.00
1137;DHT22;557;48.466;7.950;2022-10-16T15:24:46;23.60;1.00
1137;DHT22;557;48.466;7.950;2022-10-16T15:27:32;23.60;1.00
1137;DHT22;557;48.466;7.950;2022-10-16T15:30:24;23.50;1.00
1137;DHT22;557;48.466;7.950;2022-10-16T15:33:14;23.40;1.00
1137;DHT22;557;48.466;7.950;2022-10-16T15:36:01;23.30;1.00
1137;DHT22;557;48.466;7.950;2022-10-16T15:38:46;23.10;1.00
1137;DHT22;557;48.466;7.950;2022-10-16T15:41:32;23.00;99.90
1137;DHT22;557;48.466;7.950;2022-10-16T15:44:18;22.90;99.90
1137;DHT22;557;48.466;7.950;2022-10-16T15:47:04;22.80;99.90
1137;DHT22;557;48.466;7.950;2022-10-16T15:49:51;22.70;99.90
1137;DHT22;557;48.466;7.950;2022-10-16T15:52:37;22.50;1.20
1137;DHT22;557;48.466;7.950;2022-10-16T15:55:23;22.40;1.00
1137;DHT22;557;48.466;7.950;2022-10-16T15:58:09;22.30;99.90
1137;DHT22;557;48.466;7.950;2022-10-16T16:00:55;22.30;94.70
1137;DHT22;557;48.466;7.950;2022-10-16T16:03:41;22.30;99.90
1137;DHT22;557;48.466;7.950;2022-10-16T16:06:28;22.20;99.90
1137;DHT22;557;48.466;7.950;2022-10-16T16:09:16;22.10;1.00
1137;DHT22;557;48.466;7.950;2022-10-16T16:12:02;22.00;1.00
1137;DHT22;557;48.466;7.950;2022-10-16T16:14:48;21.80;99.90
1137;DHT22;557;48.466;7.950;2022-10-16T16:17:34;21.70;1.00
1137;DHT22;557;48.466;7.950;2022-10-16T16:20:20;21.60;99.90
1137;DHT22;557;48.466;7.950;2022-10-16T16:23:07;21.40;99.90
1137;DHT22;557;48.466;7.950;2022-10-16T16:26:05;21.20;99.90
1137;DHT22;557;48.466;7.950;2022-10-16T16:28:53;21.00;99.90
1137;DHT22;557;48.466;7.950;2022-10-16T16:31:41;20.80;1.00
1137;DHT22;557;48.466;7.950;2022-10-16T16:34:27;20.70;1.00
1137;DHT22;557;48.466;7.950;2022-10-16T16:37:13;20.50;1.00
1137;DHT22;557;48.466;7.950;2022-10-16T16:40:01;20.40;1.00
1137;DHT22;557;48.466;7.950;2022-10-16T16:42:47;20.30;1.00
1137;DHT22;557;48.466;7.950;2022-10-16T16:49:14;20.10;1.00
1137;DHT22;557;48.466;7.950;2022-10-16T16:52:00;20.00;1.00
1137;DHT22;557;48.466;7.950;2022-10-16T16:54:47;19.90;1.00
1137;DHT22;557;48.466;7.950;2022-10-16T16:57:37;19.80;1.00
1137;DHT22;557;48.466;7.950;2022-10-16T17:00:23;19.60;1.00
1137;DHT22;557;48.466;7.950;2022-10-16T17:03:08;19.50;1.00
1137;DHT22;557;48.466;7.950;2022-10-16T17:05:56;19.30;1.00
1137;DHT22;557;48.466;7.950;2022-10-16T17:08:42;19.20;1.00
1137;DHT22;557;48.466;7.950;2022-10-16T17:11:28;19.10;1.00
1137;DHT22;557;48.466;7.950;2022-10-16T17:14:17;19.00;1.00
1137;DHT22;557;48.466;7.950;2022-10-16T17:17:08;18.90;1.00
1137;DHT22;557;48.466;7.950;2022-10-16T17:19:56;18.80;1.00
1137;DHT22;557;48.466;7.950;2022-10-16T17:22:45;18.80;1.00
1137;DHT22;557;48.466;7.950;2022-10-16T17:25:32;18.70;1.00
1137;DHT22;557;48.466;7.950;2022-10-16T17:28:19;18.70;1.00
1137;DHT22;557;48.466;7.950;2022-10-16T17:31:11;18.70;1.00
1137;DHT22;557;48.466;7.950;2022-10-16T17:33:58;18.70;8.30
1137;DHT22;557;48.466;7.950;2022-10-16T17:36:43;18.70;1.00
1137;DHT22;557;48.466;7.950;2022-10-16T17:39:30;18.70;1.40
1137;DHT22;557;48.466;7.950;2022-10-16T17:42:16;18.80;1.00
1137;DHT22;557;48.466;7.950;2022-10-16T17:45:01;18.90;1.00
1137;DHT22;557;48.466;7.950;2022-10-16T17:47:49;19.00;1.00
1137;DHT22;557;48.466;7.950;2022-10-16T17:50:39;19.20;1.00
1137;DHT22;557;48.466;7.950;2022-10-16T17:53:24;19.30;1.00
1137;DHT22;557;48.466;7.950;2022-10-16T17:56:12;19.40;1.00
1137;DHT22;557;48.466;7.950;2022-10-16T17:58:59;19.40;1.00
1137;DHT22;557;48.466;7.950;2022-10-16T18:01:46;19.40;1.00
1137;DHT22;557;48.466;7.950;2022-10-16T18:04:33;19.40;1.00
1137;DHT22;557;48.466;7.950;2022-10-16T18:07:19;19.30;1.00
1137;DHT22;557;48.466;7.950;2022-10-16T18:10:05;19.30;1.00
1137;DHT22;557;48.466;7.950;2022-10-16T18:12:52;19.30;1.00
1137;DHT22;557;48.466;7.950;2022-10-16T18:15:40;19.30;1.00
1137;DHT22;557;48.466;7.950;2022-10-16T18:18:26;19.20;1.00
1137;DHT22;557;48.466;7.950;2022-10-16T18:21:14;19.10;1.00
1137;DHT22;557;48.466;7.950;2022-10-16T18:24:00;19.10;1.00
1137;DHT22;557;48.466;7.950;2022-10-16T18:26:48;19.00;1.00
1137;DHT22;557;48.466;7.950;2022-10-16T18:29:34;18.80;1.00
1137;DHT22;557;48.466;7.950;2022-10-16T18:32:33;18.60;7.10
1137;DHT22;557;48.466;7.950;2022-10-16T18:35:18;18.40;20.80
1137;DHT22;557;48.466;7.950;2022-10-16T18:38:05;18.40;20.20
1137;DHT22;557;48.466;7.950;2022-10-16T18:40:51;18.40;24.10
1137;DHT22;557;48.466;7.950;2022-10-16T18:43:37;18.50;11.80
1137;DHT22;557;48.466;7.950;2022-10-16T18:46:27;18.50;8.50
1137;DHT22;557;48.466;7.950;2022-10-16T18:49:13;18.50;4.00
1137;DHT22;557;48.466;7.950;2022-10-16T18:51:58;18.40;13.40
1137;DHT22;557;48.466;7.950;2022-10-16T18:54:49;18.40;18.00
1137;DHT22;557;48.466;7.950;2022-10-16T18:57:39;18.30;30.90